Terminal Aerodrome Forecast
Issued by NWS

Home | Current Version | Previous Version | Text Only | Print | Product List | Glossary On
Versions: 1 2 3 4 5 6 7 8 9 10 11 12 13 14 15
000
FTAK31 PANC 271522 AAA
TAFADQ
TAF AMD
PADQ 271522Z 2715/2812 31007KT P6SM VCSH SCT017 BKN035
      TEMPO 2715/2718 2SM -SHSN BKN017
     FM280000 35010KT P6SM SCT050=

USA.gov is the U.S. government's official web portal to all federal, state and local government web resources and services.